sensor_id;sensor_type;location;lat;lon;timestamp;P1;durP1;ratioP1;P2;durP2;ratioP2
21987;SDS011;11158;53.404;-1.510;2022-09-21T00:00:38;3.58;;;2.72;;
21987;SDS011;11158;53.404;-1.510;2022-09-21T00:03:04;4.28;;;3.17;;
21987;SDS011;11158;53.404;-1.510;2022-09-21T00:05:31;3.53;;;2.85;;
21987;SDS011;11158;53.404;-1.510;2022-09-21T00:08:00;3.78;;;2.60;;
21987;SDS011;11158;53.404;-1.510;2022-09-21T00:10:28;2.80;;;2.50;;
21987;SDS011;11158;53.404;-1.510;2022-09-21T00:12:55;3.08;;;2.50;;
21987;SDS011;11158;53.404;-1.510;2022-09-21T00:15:22;3.10;;;2.80;;
21987;SDS011;11158;53.404;-1.510;2022-09-21T00:17:51;3.58;;;2.53;;
21987;SDS011;11158;53.404;-1.510;2022-09-21T00:20:18;6.40;;;3.05;;
21987;SDS011;11158;53.404;-1.510;2022-09-21T00:22:46;4.95;;;2.90;;
21987;SDS011;11158;53.404;-1.510;2022-09-21T00:25:12;5.38;;;2.60;;
21987;SDS011;11158;53.404;-1.510;2022-09-21T00:27:39;3.78;;;2.95;;
21987;SDS011;11158;53.404;-1.510;2022-09-21T00:30:05;3.78;;;2.60;;
21987;SDS011;11158;53.404;-1.510;2022-09-21T00:32:33;5.53;;;3.40;;
21987;SDS011;11158;53.404;-1.510;2022-09-21T00:35:00;3.13;;;2.83;;
21987;SDS011;11158;53.404;-1.510;2022-09-21T00:37:27;4.00;;;3.10;;
21987;SDS011;11158;53.404;-1.510;2022-09-21T00:39:54;3.10;;;2.80;;
21987;SDS011;11158;53.404;-1.510;2022-09-21T00:44:56;3.47;;;2.67;;
21987;SDS011;11158;53.404;-1.510;2022-09-21T00:47:24;3.00;;;2.70;;
21987;SDS011;11158;53.404;-1.510;2022-09-21T00:49:54;3.78;;;2.70;;
21987;SDS011;11158;53.404;-1.510;2022-09-21T00:52:22;2.90;;;2.50;;
21987;SDS011;11158;53.404;-1.510;2022-09-21T00:54:53;5.65;;;2.72;;
21987;SDS011;11158;53.404;-1.510;2022-09-21T00:57:22;3.97;;;3.00;;
21987;SDS011;11158;53.404;-1.510;2022-09-21T00:59:52;6.45;;;3.30;;
21987;SDS011;11158;53.404;-1.510;2022-09-21T01:02:21;5.30;;;3.28;;
21987;SDS011;11158;53.404;-1.510;2022-09-21T01:04:47;3.42;;;2.97;;
21987;SDS011;11158;53.404;-1.510;2022-09-21T01:07:14;3.80;;;2.90;;
21987;SDS011;11158;53.404;-1.510;2022-09-21T01:09:44;5.25;;;3.10;;
21987;SDS011;11158;53.404;-1.510;2022-09-21T01:15:04;4.20;;;2.75;;
21987;SDS011;11158;53.404;-1.510;2022-09-21T01:20:33;3.22;;;2.70;;
21987;SDS011;11158;53.404;-1.510;2022-09-21T01:28:37;4.78;;;3.03;;
21987;SDS011;11158;53.404;-1.510;2022-09-21T01:31:06;3.10;;;2.53;;
21987;SDS011;11158;53.404;-1.510;2022-09-21T01:33:41;4.13;;;2.95;;
21987;SDS011;11158;53.404;-1.510;2022-09-21T01:36:12;3.08;;;2.70;;
21987;SDS011;11158;53.404;-1.510;2022-09-21T01:38:43;3.60;;;2.88;;
21987;SDS011;11158;53.404;-1.510;2022-09-21T01:41:15;4.72;;;2.72;;
21987;SDS011;11158;53.404;-1.510;2022-09-21T01:43:46;3.60;;;2.80;;
21987;SDS011;11158;53.404;-1.510;2022-09-21T01:46:16;5.47;;;2.97;;
21987;SDS011;11158;53.404;-1.510;2022-09-21T01:48:46;3.45;;;2.72;;
21987;SDS011;11158;53.404;-1.510;2022-09-21T01:51:16;3.97;;;2.65;;
21987;SDS011;11158;53.404;-1.510;2022-09-21T01:53:46;3.38;;;2.95;;
21987;SDS011;11158;53.404;-1.510;2022-09-21T01:56:19;4.03;;;3.00;;
21987;SDS011;11158;53.404;-1.510;2022-09-21T02:01:28;3.72;;;2.63;;
21987;SDS011;11158;53.404;-1.510;2022-09-21T02:04:00;6.90;;;3.03;;
21987;SDS011;11158;53.404;-1.510;2022-09-21T02:06:30;4.00;;;2.72;;
21987;SDS011;11158;53.404;-1.510;2022-09-21T02:08:56;3.38;;;2.72;;
21987;SDS011;11158;53.404;-1.510;2022-09-21T02:11:22;4.10;;;2.63;;
21987;SDS011;11158;53.404;-1.510;2022-09-21T02:13:49;3.67;;;2.90;;
21987;SDS011;11158;53.404;-1.510;2022-09-21T02:16:28;3.33;;;2.75;;
21987;SDS011;11158;53.404;-1.510;2022-09-21T02:21:31;5.45;;;2.85;;
21987;SDS011;11158;53.404;-1.510;2022-09-21T02:35:00;4.50;;;2.83;;
21987;SDS011;11158;53.404;-1.510;2022-09-21T02:42:40;4.20;;;2.95;;
21987;SDS011;11158;53.404;-1.510;2022-09-21T02:45:13;3.55;;;2.78;;
21987;SDS011;11158;53.404;-1.510;2022-09-21T02:47:51;4.15;;;3.30;;
21987;SDS011;11158;53.404;-1.510;2022-09-21T02:50:30;4.50;;;3.10;;
21987;SDS011;11158;53.404;-1.510;2022-09-21T02:53:03;5.10;;;3.28;;
21987;SDS011;11158;53.404;-1.510;2022-09-21T02:55:31;3.95;;;2.63;;
21987;SDS011;11158;53.404;-1.510;2022-09-21T02:57:58;6.35;;;3.17;;
21987;SDS011;11158;53.404;-1.510;2022-09-21T03:00:30;3.72;;;2.78;;
21987;SDS011;11158;53.404;-1.510;2022-09-21T03:02:56;3.47;;;2.80;;
21987;SDS011;11158;53.404;-1.510;2022-09-21T03:05:22;2.97;;;2.67;;
21987;SDS011;11158;53.404;-1.510;2022-09-21T03:07:48;4.40;;;3.10;;
21987;SDS011;11158;53.404;-1.510;2022-09-21T03:10:14;5.43;;;2.78;;
21987;SDS011;11158;53.404;-1.510;2022-09-21T03:12:39;3.53;;;2.92;;
21987;SDS011;11158;53.404;-1.510;2022-09-21T03:15:10;4.55;;;2.67;;
21987;SDS011;11158;53.404;-1.510;2022-09-21T03:17:35;4.20;;;3.20;;
21987;SDS011;11158;53.404;-1.510;2022-09-21T03:20:01;4.32;;;3.10;;
21987;SDS011;11158;53.404;-1.510;2022-09-21T03:22:27;3.25;;;2.65;;
21987;SDS011;11158;53.404;-1.510;2022-09-21T03:24:53;4.07;;;3.20;;
21987;SDS011;11158;53.404;-1.510;2022-09-21T03:27:21;3.25;;;2.90;;
21987;SDS011;11158;53.404;-1.510;2022-09-21T03:29:48;5.03;;;3.33;;
21987;SDS011;11158;53.404;-1.510;2022-09-21T03:32:14;3.53;;;2.83;;
21987;SDS011;11158;53.404;-1.510;2022-09-21T03:34:40;3.97;;;2.97;;
21987;SDS011;11158;53.404;-1.510;2022-09-21T03:37:06;4.53;;;2.95;;
21987;SDS011;11158;53.404;-1.510;2022-09-21T03:39:33;3.17;;;2.50;;
21987;SDS011;11158;53.404;-1.510;2022-09-21T03:41:59;4.15;;;3.00;;
21987;SDS011;11158;53.404;-1.510;2022-09-21T03:44:26;3.13;;;2.67;;
21987;SDS011;11158;53.404;-1.510;2022-09-21T03:46:52;3.60;;;2.55;;
21987;SDS011;11158;53.404;-1.510;2022-09-21T03:49:18;4.65;;;2.85;;
21987;SDS011;11158;53.404;-1.510;2022-09-21T03:51:44;4.72;;;3.10;;
21987;SDS011;11158;53.404;-1.510;2022-09-21T03:54:10;6.30;;;2.72;;
21987;SDS011;11158;53.404;-1.510;2022-09-21T03:56:36;4.00;;;3.15;;
21987;SDS011;11158;53.404;-1.510;2022-09-21T03:59:03;4.97;;;3.33;;
21987;SDS011;11158;53.404;-1.510;2022-09-21T04:01:32;4.30;;;3.03;;
21987;SDS011;11158;53.404;-1.510;2022-09-21T04:04:00;4.18;;;2.95;;
21987;SDS011;11158;53.404;-1.510;2022-09-21T04:06:31;3.40;;;2.92;;
21987;SDS011;11158;53.404;-1.510;2022-09-21T04:08:58;3.83;;;2.78;;
21987;SDS011;11158;53.404;-1.510;2022-09-21T04:11:26;4.07;;;3.10;;
21987;SDS011;11158;53.404;-1.510;2022-09-21T04:13:53;3.63;;;3.03;;
21987;SDS011;11158;53.404;-1.510;2022-09-21T04:16:25;3.38;;;3.00;;
21987;SDS011;11158;53.404;-1.510;2022-09-21T04:18:51;6.93;;;3.42;;
21987;SDS011;11158;53.404;-1.510;2022-09-21T04:21:17;5.25;;;3.10;;
21987;SDS011;11158;53.404;-1.510;2022-09-21T04:23:44;5.57;;;3.30;;
21987;SDS011;11158;53.404;-1.510;2022-09-21T04:26:29;3.90;;;3.03;;
21987;SDS011;11158;53.404;-1.510;2022-09-21T04:28:57;3.78;;;2.97;;
21987;SDS011;11158;53.404;-1.510;2022-09-21T04:31:23;5.07;;;3.30;;
21987;SDS011;11158;53.404;-1.510;2022-09-21T04:33:50;5.25;;;3.30;;
21987;SDS011;11158;53.404;-1.510;2022-09-21T04:36:18;5.00;;;3.65;;
21987;SDS011;11158;53.404;-1.510;2022-09-21T04:38:45;7.82;;;3.97;;
21987;SDS011;11158;53.404;-1.510;2022-09-21T04:41:11;4.82;;;3.80;;
21987;SDS011;11158;53.404;-1.510;2022-09-21T04:43:40;4.78;;;3.65;;
21987;SDS011;11158;53.404;-1.510;2022-09-21T04:46:07;5.72;;;3.88;;
21987;SDS011;11158;53.404;-1.510;2022-09-21T04:48:34;4.85;;;3.88;;
21987;SDS011;11158;53.404;-1.510;2022-09-21T04:51:01;5.97;;;3.58;;
21987;SDS011;11158;53.404;-1.510;2022-09-21T04:53:28;5.22;;;4.43;;
21987;SDS011;11158;53.404;-1.510;2022-09-21T04:55:54;7.82;;;4.18;;
21987;SDS011;11158;53.404;-1.510;2022-09-21T04:58:22;6.20;;;4.00;;
21987;SDS011;11158;53.404;-1.510;2022-09-21T05:00:51;5.72;;;4.00;;
21987;SDS011;11158;53.404;-1.510;2022-09-21T05:03:20;5.10;;;3.88;;
21987;SDS011;11158;53.404;-1.510;2022-09-21T05:05:48;6.88;;;4.28;;
21987;SDS011;11158;53.404;-1.510;2022-09-21T05:08:15;6.75;;;4.50;;
21987;SDS011;11158;53.404;-1.510;2022-09-21T05:10:42;5.40;;;3.92;;
21987;SDS011;11158;53.404;-1.510;2022-09-21T05:13:08;7.80;;;4.50;;
21987;SDS011;11158;53.404;-1.510;2022-09-21T05:15:38;9.23;;;4.63;;
21987;SDS011;11158;53.404;-1.510;2022-09-21T05:18:04;5.72;;;4.50;;
21987;SDS011;11158;53.404;-1.510;2022-09-21T05:20:30;6.55;;;4.22;;
21987;SDS011;11158;53.404;-1.510;2022-09-21T05:22:58;12.88;;;10.45;;
21987;SDS011;11158;53.404;-1.510;2022-09-21T05:25:25;6.07;;;5.00;;
21987;SDS011;11158;53.404;-1.510;2022-09-21T05:27:51;5.80;;;4.43;;
21987;SDS011;11158;53.404;-1.510;2022-09-21T05:30:17;7.38;;;4.72;;
21987;SDS011;11158;53.404;-1.510;2022-09-21T05:32:59;6.55;;;4.90;;
21987;SDS011;11158;53.404;-1.510;2022-09-21T05:38:23;8.50;;;5.47;;
21987;SDS011;11158;53.404;-1.510;2022-09-21T05:40:48;6.70;;;5.32;;
21987;SDS011;11158;53.404;-1.510;2022-09-21T05:43:14;7.22;;;5.07;;
21987;SDS011;11158;53.404;-1.510;2022-09-21T05:45:43;6.50;;;5.35;;
21987;SDS011;11158;53.404;-1.510;2022-09-21T05:48:15;6.03;;;4.95;;
21987;SDS011;11158;53.404;-1.510;2022-09-21T05:53:30;7.80;;;5.60;;
21987;SDS011;11158;53.404;-1.510;2022-09-21T05:56:17;9.43;;;5.95;;
21987;SDS011;11158;53.404;-1.510;2022-09-21T05:59:00;8.10;;;5.30;;
21987;SDS011;11158;53.404;-1.510;2022-09-21T06:01:38;8.75;;;5.65;;
21987;SDS011;11158;53.404;-1.510;2022-09-21T06:04:35;8.98;;;5.75;;
21987;SDS011;11158;53.404;-1.510;2022-09-21T06:07:01;8.98;;;5.72;;
21987;SDS011;11158;53.404;-1.510;2022-09-21T06:09:27;10.05;;;5.68;;
21987;SDS011;11158;53.404;-1.510;2022-09-21T06:11:52;7.80;;;5.65;;
21987;SDS011;11158;53.404;-1.510;2022-09-21T06:14:18;8.73;;;5.78;;
21987;SDS011;11158;53.404;-1.510;2022-09-21T06:16:49;8.02;;;5.57;;
21987;SDS011;11158;53.404;-1.510;2022-09-21T06:19:16;7.43;;;5.53;;
21987;SDS011;11158;53.404;-1.510;2022-09-21T06:21:42;11.13;;;5.60;;
21987;SDS011;11158;53.404;-1.510;2022-09-21T06:24:07;8.63;;;5.93;;
21987;SDS011;11158;53.404;-1.510;2022-09-21T06:26:33;9.75;;;6.32;;
21987;SDS011;11158;53.404;-1.510;2022-09-21T06:28:59;9.57;;;6.05;;
21987;SDS011;11158;53.404;-1.510;2022-09-21T06:31:25;11.63;;;6.43;;
21987;SDS011;11158;53.404;-1.510;2022-09-21T06:33:52;7.30;;;6.35;;
21987;SDS011;11158;53.404;-1.510;2022-09-21T06:36:18;11.90;;;6.68;;
21987;SDS011;11158;53.404;-1.510;2022-09-21T06:38:44;10.52;;;6.45;;
21987;SDS011;11158;53.404;-1.510;2022-09-21T06:41:10;10.35;;;6.15;;
21987;SDS011;11158;53.404;-1.510;2022-09-21T06:43:35;14.52;;;6.65;;
21987;SDS011;11158;53.404;-1.510;2022-09-21T06:46:01;11.52;;;6.30;;
21987;SDS011;11158;53.404;-1.510;2022-09-21T06:48:28;10.80;;;7.20;;
21987;SDS011;11158;53.404;-1.510;2022-09-21T06:51:02;10.95;;;7.32;;
21987;SDS011;11158;53.404;-1.510;2022-09-21T06:53:30;10.18;;;7.68;;
21987;SDS011;11158;53.404;-1.510;2022-09-21T06:56:02;8.75;;;7.00;;
21987;SDS011;11158;53.404;-1.510;2022-09-21T06:58:32;11.65;;;7.72;;
21987;SDS011;11158;53.404;-1.510;2022-09-21T07:03:34;10.13;;;7.65;;
21987;SDS011;11158;53.404;-1.510;2022-09-21T07:06:00;11.98;;;7.63;;
21987;SDS011;11158;53.404;-1.510;2022-09-21T07:08:26;11.13;;;8.00;;
21987;SDS011;11158;53.404;-1.510;2022-09-21T07:10:52;11.68;;;7.10;;
21987;SDS011;11158;53.404;-1.510;2022-09-21T07:13:18;10.55;;;8.23;;
21987;SDS011;11158;53.404;-1.510;2022-09-21T07:15:44;9.32;;;8.00;;
21987;SDS011;11158;53.404;-1.510;2022-09-21T07:18:11;11.82;;;7.38;;
21987;SDS011;11158;53.404;-1.510;2022-09-21T07:20:41;11.75;;;7.88;;
21987;SDS011;11158;53.404;-1.510;2022-09-21T07:23:10;14.45;;;8.75;;
21987;SDS011;11158;53.404;-1.510;2022-09-21T07:25:44;12.55;;;7.50;;
21987;SDS011;11158;53.404;-1.510;2022-09-21T07:28:18;11.55;;;8.35;;
21987;SDS011;11158;53.404;-1.510;2022-09-21T07:30:44;10.98;;;8.32;;
21987;SDS011;11158;53.404;-1.510;2022-09-21T07:33:10;9.32;;;7.28;;
21987;SDS011;11158;53.404;-1.510;2022-09-21T07:35:35;11.23;;;8.50;;
21987;SDS011;11158;53.404;-1.510;2022-09-21T07:38:05;13.25;;;8.88;;
21987;SDS011;11158;53.404;-1.510;2022-09-21T07:40:32;14.23;;;9.35;;
21987;SDS011;11158;53.404;-1.510;2022-09-21T07:42:59;14.32;;;9.63;;
21987;SDS011;11158;53.404;-1.510;2022-09-21T07:45:29;12.68;;;8.80;;
21987;SDS011;11158;53.404;-1.510;2022-09-21T07:48:00;13.70;;;10.27;;
21987;SDS011;11158;53.404;-1.510;2022-09-21T07:50:27;14.32;;;9.35;;
21987;SDS011;11158;53.404;-1.510;2022-09-21T07:52:53;11.52;;;9.65;;
21987;SDS011;11158;53.404;-1.510;2022-09-21T07:55:19;12.88;;;9.10;;
21987;SDS011;11158;53.404;-1.510;2022-09-21T07:57:45;12.27;;;9.43;;
21987;SDS011;11158;53.404;-1.510;2022-09-21T08:00:32;13.23;;;9.75;;
21987;SDS011;11158;53.404;-1.510;2022-09-21T08:02:59;17.70;;;12.30;;
21987;SDS011;11158;53.404;-1.510;2022-09-21T08:05:25;17.98;;;12.32;;
21987;SDS011;11158;53.404;-1.510;2022-09-21T08:07:55;21.63;;;15.05;;
21987;SDS011;11158;53.404;-1.510;2022-09-21T08:10:21;20.98;;;14.07;;
21987;SDS011;11158;53.404;-1.510;2022-09-21T08:12:48;18.15;;;13.70;;
21987;SDS011;11158;53.404;-1.510;2022-09-21T08:15:14;18.30;;;13.68;;
21987;SDS011;11158;53.404;-1.510;2022-09-21T08:17:40;16.35;;;12.30;;
21987;SDS011;11158;53.404;-1.510;2022-09-21T08:20:06;16.52;;;12.30;;
21987;SDS011;11158;53.404;-1.510;2022-09-21T08:22:32;15.73;;;12.55;;
21987;SDS011;11158;53.404;-1.510;2022-09-21T08:24:57;14.15;;;10.70;;
21987;SDS011;11158;53.404;-1.510;2022-09-21T08:27:23;15.77;;;10.32;;
21987;SDS011;11158;53.404;-1.510;2022-09-21T08:29:51;12.70;;;9.88;;
21987;SDS011;11158;53.404;-1.510;2022-09-21T08:32:17;11.07;;;8.45;;
21987;SDS011;11158;53.404;-1.510;2022-09-21T08:34:43;9.32;;;7.82;;
21987;SDS011;11158;53.404;-1.510;2022-09-21T08:37:08;10.45;;;7.60;;
21987;SDS011;11158;53.404;-1.510;2022-09-21T08:39:34;8.05;;;6.95;;
21987;SDS011;11158;53.404;-1.510;2022-09-21T08:44:51;9.40;;;6.47;;
21987;SDS011;11158;53.404;-1.510;2022-09-21T08:47:40;6.55;;;5.03;;
21987;SDS011;11158;53.404;-1.510;2022-09-21T08:52:51;6.00;;;4.43;;
21987;SDS011;11158;53.404;-1.510;2022-09-21T08:55:24;5.63;;;4.15;;
21987;SDS011;11158;53.404;-1.510;2022-09-21T08:57:50;7.20;;;4.75;;
21987;SDS011;11158;53.404;-1.510;2022-09-21T09:00:17;7.25;;;4.50;;
21987;SDS011;11158;53.404;-1.510;2022-09-21T09:13:52;7.60;;;4.30;;
21987;SDS011;11158;53.404;-1.510;2022-09-21T09:16:35;10.45;;;5.20;;
21987;SDS011;11158;53.404;-1.510;2022-09-21T09:19:48;6.75;;;5.00;;
21987;SDS011;11158;53.404;-1.510;2022-09-21T09:22:22;6.07;;;4.78;;
21987;SDS011;11158;53.404;-1.510;2022-09-21T09:27:26;7.45;;;4.60;;
21987;SDS011;11158;53.404;-1.510;2022-09-21T09:30:00;7.72;;;4.43;;
21987;SDS011;11158;53.404;-1.510;2022-09-21T09:41:16;4.10;;;2.97;;
21987;SDS011;11158;53.404;-1.510;2022-09-21T09:44:05;4.40;;;3.10;;
21987;SDS011;11158;53.404;-1.510;2022-09-21T09:47:04;7.22;;;3.17;;
21987;SDS011;11158;53.404;-1.510;2022-09-21T09:52:47;3.03;;;2.60;;
21987;SDS011;11158;53.404;-1.510;2022-09-21T09:55:25;4.53;;;2.53;;
21987;SDS011;11158;53.404;-1.510;2022-09-21T09:57:58;5.13;;;2.70;;
21987;SDS011;11158;53.404;-1.510;2022-09-21T10:00:24;5.88;;;2.83;;
21987;SDS011;11158;53.404;-1.510;2022-09-21T10:02:51;2.40;;;2.20;;
21987;SDS011;11158;53.404;-1.510;2022-09-21T10:05:23;4.38;;;2.78;;
21987;SDS011;11158;53.404;-1.510;2022-09-21T10:07:56;4.55;;;2.45;;
21987;SDS011;11158;53.404;-1.510;2022-09-21T10:13:05;3.25;;;2.95;;
21987;SDS011;11158;53.404;-1.510;2022-09-21T10:15:39;3.97;;;2.83;;
21987;SDS011;11158;53.404;-1.510;2022-09-21T10:18:18;3.28;;;2.75;;
21987;SDS011;11158;53.404;-1.510;2022-09-21T10:21:18;3.13;;;2.70;;
21987;SDS011;11158;53.404;-1.510;2022-09-21T10:23:50;6.65;;;2.88;;
21987;SDS011;11158;53.404;-1.510;2022-09-21T10:26:18;4.38;;;3.20;;
21987;SDS011;11158;53.404;-1.510;2022-09-21T10:28:59;3.50;;;3.20;;
21987;SDS011;11158;53.404;-1.510;2022-09-21T10:31:28;4.05;;;2.80;;
21987;SDS011;11158;53.404;-1.510;2022-09-21T10:34:06;3.58;;;2.63;;
21987;SDS011;11158;53.404;-1.510;2022-09-21T10:36:39;4.03;;;3.00;;
21987;SDS011;11158;53.404;-1.510;2022-09-21T10:42:13;4.05;;;2.83;;
21987;SDS011;11158;53.404;-1.510;2022-09-21T10:44:44;2.30;;;2.10;;
21987;SDS011;11158;53.404;-1.510;2022-09-21T10:50:01;3.38;;;2.10;;
21987;SDS011;11158;53.404;-1.510;2022-09-21T10:52:37;4.65;;;2.47;;
21987;SDS011;11158;53.404;-1.510;2022-09-21T10:55:13;2.97;;;2.28;;
21987;SDS011;11158;53.404;-1.510;2022-09-21T10:57:41;5.90;;;1.80;;
21987;SDS011;11158;53.404;-1.510;2022-09-21T11:02:46;2.53;;;1.83;;
21987;SDS011;11158;53.404;-1.510;2022-09-21T11:05:18;3.40;;;1.50;;
21987;SDS011;11158;53.404;-1.510;2022-09-21T11:10:44;2.10;;;1.23;;
21987;SDS011;11158;53.404;-1.510;2022-09-21T11:21:31;2.72;;;1.00;;
21987;SDS011;11158;53.404;-1.510;2022-09-21T11:35:17;1.95;;;1.02;;
21987;SDS011;11158;53.404;-1.510;2022-09-21T11:38:03;1.40;;;1.00;;
21987;SDS011;11158;53.404;-1.510;2022-09-21T11:43:32;2.13;;;1.05;;
21987;SDS011;11158;53.404;-1.510;2022-09-21T11:49:01;1.23;;;0.93;;
21987;SDS011;11158;53.404;-1.510;2022-09-21T11:57:22;1.48;;;0.93;;
21987;SDS011;11158;53.404;-1.510;2022-09-21T11:59:59;1.20;;;0.60;;
21987;SDS011;11158;53.404;-1.510;2022-09-21T12:10:57;1.40;;;1.00;;
21987;SDS011;11158;53.404;-1.510;2022-09-21T12:16:05;4.00;;;1.75;;
21987;SDS011;11158;53.404;-1.510;2022-09-21T12:18:44;4.80;;;1.95;;
21987;SDS011;11158;53.404;-1.510;2022-09-21T12:21:17;3.00;;;1.63;;
21987;SDS011;11158;53.404;-1.510;2022-09-21T12:23:55;1.42;;;1.00;;
21987;SDS011;11158;53.404;-1.510;2022-09-21T12:26:26;2.35;;;1.42;;
21987;SDS011;11158;53.404;-1.510;2022-09-21T12:29:02;2.65;;;1.92;;
21987;SDS011;11158;53.404;-1.510;2022-09-21T12:34:44;2.75;;;1.50;;
21987;SDS011;11158;53.404;-1.510;2022-09-21T12:40:05;2.15;;;1.23;;
21987;SDS011;11158;53.404;-1.510;2022-09-21T12:42:51;1.58;;;1.10;;
21987;SDS011;11158;53.404;-1.510;2022-09-21T12:45:27;1.42;;;1.20;;
21987;SDS011;11158;53.404;-1.510;2022-09-21T12:53:08;2.03;;;1.27;;
21987;SDS011;11158;53.404;-1.510;2022-09-21T12:55:44;3.25;;;1.48;;
21987;SDS011;11158;53.404;-1.510;2022-09-21T13:04:02;2.80;;;1.42;;
21987;SDS011;11158;53.404;-1.510;2022-09-21T13:09:11;1.80;;;1.15;;
21987;SDS011;11158;53.404;-1.510;2022-09-21T13:11:52;1.73;;;1.30;;
21987;SDS011;11158;53.404;-1.510;2022-09-21T13:14:24;3.67;;;1.48;;
21987;SDS011;11158;53.404;-1.510;2022-09-21T13:16:55;4.07;;;1.50;;
21987;SDS011;11158;53.404;-1.510;2022-09-21T13:19:26;1.35;;;1.20;;
21987;SDS011;11158;53.404;-1.510;2022-09-21T13:25:00;2.97;;;1.80;;
21987;SDS011;11158;53.404;-1.510;2022-09-21T13:30:35;2.17;;;1.40;;
21987;SDS011;11158;53.404;-1.510;2022-09-21T13:33:07;3.80;;;1.50;;
21987;SDS011;11158;53.404;-1.510;2022-09-21T13:44:13;3.38;;;1.88;;
21987;SDS011;11158;53.404;-1.510;2022-09-21T13:49:01;2.58;;;1.20;;
21987;SDS011;11158;53.404;-1.510;2022-09-21T14:08:04;2.80;;;1.40;;
21987;SDS011;11158;53.404;-1.510;2022-09-21T14:10:55;1.45;;;1.35;;
21987;SDS011;11158;53.404;-1.510;2022-09-21T14:13:35;1.95;;;1.40;;
21987;SDS011;11158;53.404;-1.510;2022-09-21T14:17:02;1.60;;;1.50;;
21987;SDS011;11158;53.404;-1.510;2022-09-21T14:24:33;2.92;;;1.40;;
21987;SDS011;11158;53.404;-1.510;2022-09-21T14:27:04;3.63;;;1.25;;
21987;SDS011;11158;53.404;-1.510;2022-09-21T14:30:01;1.40;;;1.10;;
21987;SDS011;11158;53.404;-1.510;2022-09-21T14:32:28;1.83;;;1.17;;
21987;SDS011;11158;53.404;-1.510;2022-09-21T14:35:04;2.40;;;1.00;;
21987;SDS011;11158;53.404;-1.510;2022-09-21T14:37:44;1.75;;;1.30;;
21987;SDS011;11158;53.404;-1.510;2022-09-21T14:40:19;1.42;;;1.33;;
21987;SDS011;11158;53.404;-1.510;2022-09-21T14:42:48;3.25;;;2.55;;
21987;SDS011;11158;53.404;-1.510;2022-09-21T14:45:16;2.10;;;1.90;;
21987;SDS011;11158;53.404;-1.510;2022-09-21T14:50:44;1.35;;;1.23;;
21987;SDS011;11158;53.404;-1.510;2022-09-21T14:56:27;1.48;;;1.17;;
21987;SDS011;11158;53.404;-1.510;2022-09-21T15:13:13;7.20;;;5.35;;
21987;SDS011;11158;53.404;-1.510;2022-09-21T15:18:25;4.18;;;3.45;;
21987;SDS011;11158;53.404;-1.510;2022-09-21T15:20:55;2.30;;;1.75;;
21987;SDS011;11158;53.404;-1.510;2022-09-21T15:23:47;1.85;;;1.45;;
21987;SDS011;11158;53.404;-1.510;2022-09-21T15:26:15;1.52;;;1.10;;
21987;SDS011;11158;53.404;-1.510;2022-09-21T15:28:55;1.52;;;1.25;;
21987;SDS011;11158;53.404;-1.510;2022-09-21T15:31:23;2.97;;;1.30;;
21987;SDS011;11158;53.404;-1.510;2022-09-21T15:33:50;3.78;;;1.52;;
21987;SDS011;11158;53.404;-1.510;2022-09-21T15:36:22;2.13;;;1.23;;
21987;SDS011;11158;53.404;-1.510;2022-09-21T15:38:54;3.15;;;1.42;;
21987;SDS011;11158;53.404;-1.510;2022-09-21T15:41:43;2.60;;;1.67;;
21987;SDS011;11158;53.404;-1.510;2022-09-21T15:44:16;3.80;;;1.38;;
21987;SDS011;11158;53.404;-1.510;2022-09-21T15:46:47;3.03;;;1.85;;
21987;SDS011;11158;53.404;-1.510;2022-09-21T15:49:18;1.40;;;1.30;;
21987;SDS011;11158;53.404;-1.510;2022-09-21T15:56:59;1.40;;;1.20;;
21987;SDS011;11158;53.404;-1.510;2022-09-21T15:59:28;2.08;;;1.38;;
21987;SDS011;11158;53.404;-1.510;2022-09-21T16:01:56;1.67;;;1.30;;
21987;SDS011;11158;53.404;-1.510;2022-09-21T16:04:25;4.35;;;2.25;;
21987;SDS011;11158;53.404;-1.510;2022-09-21T16:06:57;1.50;;;1.35;;
21987;SDS011;11158;53.404;-1.510;2022-09-21T16:09:33;2.08;;;1.52;;
21987;SDS011;11158;53.404;-1.510;2022-09-21T16:14:53;1.67;;;1.25;;
21987;SDS011;11158;53.404;-1.510;2022-09-21T16:17:51;1.70;;;1.27;;
21987;SDS011;11158;53.404;-1.510;2022-09-21T16:20:24;1.48;;;1.38;;
21987;SDS011;11158;53.404;-1.510;2022-09-21T16:23:08;2.22;;;1.33;;
21987;SDS011;11158;53.404;-1.510;2022-09-21T16:25:38;1.58;;;1.33;;
21987;SDS011;11158;53.404;-1.510;2022-09-21T16:30:44;2.20;;;1.23;;
21987;SDS011;11158;53.404;-1.510;2022-09-21T16:36:47;2.78;;;1.67;;
21987;SDS011;11158;53.404;-1.510;2022-09-21T16:38:52;4.93;;;1.38;;
21987;SDS011;11158;53.404;-1.510;2022-09-21T16:41:17;1.73;;;1.30;;
21987;SDS011;11158;53.404;-1.510;2022-09-21T16:43:45;3.00;;;1.48;;
21987;SDS011;11158;53.404;-1.510;2022-09-21T16:46:11;2.65;;;1.30;;
21987;SDS011;11158;53.404;-1.510;2022-09-21T16:48:38;1.40;;;1.10;;
21987;SDS011;11158;53.404;-1.510;2022-09-21T16:51:14;4.90;;;1.10;;
21987;SDS011;11158;53.404;-1.510;2022-09-21T16:53:46;1.30;;;1.20;;
21987;SDS011;11158;53.404;-1.510;2022-09-21T16:56:12;2.90;;;1.30;;
21987;SDS011;11158;53.404;-1.510;2022-09-21T16:58:39;1.90;;;1.27;;
21987;SDS011;11158;53.404;-1.510;2022-09-21T17:01:12;2.20;;;1.30;;
21987;SDS011;11158;53.404;-1.510;2022-09-21T17:03:40;2.40;;;1.33;;
21987;SDS011;11158;53.404;-1.510;2022-09-21T17:06:13;2.08;;;1.63;;
21987;SDS011;11158;53.404;-1.510;2022-09-21T17:08:43;3.95;;;1.60;;
21987;SDS011;11158;53.404;-1.510;2022-09-21T17:11:13;2.55;;;1.45;;
21987;SDS011;11158;53.404;-1.510;2022-09-21T17:13:47;1.98;;;1.70;;
21987;SDS011;11158;53.404;-1.510;2022-09-21T17:16:14;3.22;;;1.98;;
21987;SDS011;11158;53.404;-1.510;2022-09-21T17:18:43;1.30;;;1.20;;
21987;SDS011;11158;53.404;-1.510;2022-09-21T17:21:10;4.28;;;1.63;;
21987;SDS011;11158;53.404;-1.510;2022-09-21T17:23:36;3.67;;;1.90;;
21987;SDS011;11158;53.404;-1.510;2022-09-21T17:26:02;2.05;;;1.77;;
21987;SDS011;11158;53.404;-1.510;2022-09-21T17:28:33;3.35;;;2.10;;
21987;SDS011;11158;53.404;-1.510;2022-09-21T17:30:59;2.90;;;2.20;;
21987;SDS011;11158;53.404;-1.510;2022-09-21T17:33:31;3.67;;;2.20;;
21987;SDS011;11158;53.404;-1.510;2022-09-21T17:35:57;5.13;;;1.92;;
21987;SDS011;11158;53.404;-1.510;2022-09-21T17:38:23;3.15;;;2.30;;
21987;SDS011;11158;53.404;-1.510;2022-09-21T17:40:49;4.70;;;1.85;;
21987;SDS011;11158;53.404;-1.510;2022-09-21T17:45:48;2.85;;;2.00;;
21987;SDS011;11158;53.404;-1.510;2022-09-21T17:48:17;2.30;;;2.00;;
21987;SDS011;11158;53.404;-1.510;2022-09-21T17:50:45;3.08;;;1.90;;
21987;SDS011;11158;53.404;-1.510;2022-09-21T17:53:11;2.13;;;1.67;;
21987;SDS011;11158;53.404;-1.510;2022-09-21T17:55:57;2.08;;;1.88;;
21987;SDS011;11158;53.404;-1.510;2022-09-21T18:01:17;5.20;;;1.88;;
21987;SDS011;11158;53.404;-1.510;2022-09-21T18:04:07;2.45;;;1.92;;
21987;SDS011;11158;53.404;-1.510;2022-09-21T18:06:35;2.72;;;2.47;;
21987;SDS011;11158;53.404;-1.510;2022-09-21T18:09:01;3.33;;;2.10;;
21987;SDS011;11158;53.404;-1.510;2022-09-21T18:14:27;3.40;;;1.90;;
21987;SDS011;11158;53.404;-1.510;2022-09-21T18:25:25;4.15;;;2.17;;
21987;SDS011;11158;53.404;-1.510;2022-09-21T18:27:55;2.03;;;1.83;;
21987;SDS011;11158;53.404;-1.510;2022-09-21T18:30:23;2.83;;;2.03;;
21987;SDS011;11158;53.404;-1.510;2022-09-21T18:33:06;4.47;;;1.90;;
21987;SDS011;11158;53.404;-1.510;2022-09-21T18:35:57;4.13;;;2.20;;
21987;SDS011;11158;53.404;-1.510;2022-09-21T18:38:36;4.32;;;2.30;;
21987;SDS011;11158;53.404;-1.510;2022-09-21T18:41:08;3.05;;;2.55;;
21987;SDS011;11158;53.404;-1.510;2022-09-21T18:54:26;4.75;;;2.50;;
21987;SDS011;11158;53.404;-1.510;2022-09-21T18:56:52;3.45;;;2.10;;
21987;SDS011;11158;53.404;-1.510;2022-09-21T18:59:19;2.60;;;2.35;;
21987;SDS011;11158;53.404;-1.510;2022-09-21T19:01:45;4.53;;;2.75;;
21987;SDS011;11158;53.404;-1.510;2022-09-21T19:04:12;5.15;;;4.07;;
21987;SDS011;11158;53.404;-1.510;2022-09-21T19:07:02;5.25;;;3.47;;